Steve Richoux — WDC2820 — position and weather

sailwx.info

Track history (hours):
 
Tides and Currents Weather Stations Pressure Air Temp Water Temp Dewpoint Dewpoint Depression Visibility Wind Speed Wind Dir Waves Ship Positions

Steve Richoux

Owner: Marquette Transportation Company Gulf-Inland, LLC, Jefferson, LA. More information available from US FCC via Universal Licensing System and Coast Guard Vessel Documentation Center.

Last reported at 2017-Sep-13 13:56 UTC. Time now 2017-Sep-24 15:55 UTC.
Position N 29°33' W 090°24'.
Warning: this ship's position is 11 days out of date.

Length 21 m; draft 3.4 m.

Type: Tow > 200 m length. MMSI: 366998110.

Date/timePositionNaut miles runAvg speedWind from/ knotsBaromVisibWave heightAir tempDewpointWater temp
2017-Sep-13 13:56N 29°33' W 090°24'1 3.1
2017-Sep-13 13:29N 29°33' W 090°25'2 4.6
2017-Sep-13 13:00N 29°33' W 090°28'3 5.8
2017-Sep-13 12:31N 29°34' W 090°31'3 5.6
2017-Sep-13 12:01N 29°34' W 090°34'2 4.9
2017-Sep-13 11:31N 29°35' W 090°37'3 5.6
2017-Sep-13 11:01N 29°36' W 090°40'2 4.4
2017-Sep-13 10:31N 29°37' W 090°42'2 4.1
2017-Sep-13 10:01N 29°35' W 090°43'2 3.6
2017-Sep-13 09:31N 29°34' W 090°45'2 4.6
2017-Sep-13 09:01N 29°32' W 090°47'2 4.7
2017-Sep-13 08:31N 29°32' W 090°49'3 5.8
2017-Sep-13 07:59N 29°32' W 090°53'3 6.0
2017-Sep-13 07:30N 29°34' W 090°56'60 3.7
2017-Sep-12 15:18N 29°49' W 092°02'1 5.0
2017-Sep-12 15:01N 29°48' W 092°04'3 5.2
2017-Sep-12 14:31N 29°48' W 092°07'3 5.4
2017-Sep-12 14:01N 29°47' W 092°10'3 5.5
2017-Sep-12 13:29N 29°47' W 092°13'1 1.4
2017-Sep-12 12:59N 29°48' W 092°14'1 2.7
2017-Sep-12 12:29N 29°48' W 092°15'5 5.5
2017-Sep-12 11:39N 29°50' W 092°20'38 5.1
2017-Sep-12 04:12N 29°56' W 093°03'1 5.0
2017-Sep-12 04:01N 29°56' W 093°04'2 4.9
2017-Sep-12 03:31N 29°56' W 093°07'3 4.6
2017-Sep-12 02:58N 29°56' W 093°09'2 4.9
2017-Sep-12 02:31N 29°58' W 093°11'2 4.8
2017-Sep-12 02:01N 29°60' W 093°13'2 3.9
2017-Sep-12 01:30N 30°01' W 093°14'2 4.4
2017-Sep-12 01:01N 30°03' W 093°16'2 4.4
2017-Sep-12 00:31N 30°05' W 093°17'1 3.0
2017-Sep-12 00:01N 30°06' W 093°18'1 1.4
2017-Sep-11 23:31N 30°06' W 093°19'0 0.0
2017-Sep-11 23:01N 30°06' W 093°19'0 0.1
2017-Sep-11 22:31N 30°06' W 093°19'0 0.0
2017-Sep-11 22:01N 30°06' W 093°19'0 0.0
2017-Sep-11 21:31N 30°06' W 093°19'0 0.1
2017-Sep-11 21:00N 30°06' W 093°19'0 0.0
2017-Sep-11 20:30N 30°06' W 093°19'0 0.1
2017-Sep-11 20:01N 30°06' W 093°19'0 0.0
2017-Sep-11 19:31N 30°06' W 093°19'0 0.0
2017-Sep-11 19:01N 30°06' W 093°19'0 0.0
2017-Sep-11 18:31N 30°06' W 093°19'2 3.3
2017-Sep-11 18:01N 30°05' W 093°20'2 4.8
2017-Sep-11 17:31N 30°04' W 093°23'3 6.1
2017-Sep-11 17:01N 30°04' W 093°26'3 5.9
2017-Sep-11 16:31N 30°04' W 093°30'3 6.2
2017-Sep-11 16:01N 30°04' W 093°33'3 6.1
2017-Sep-11 15:31N 30°03' W 093°37'4 5.5
2017-Sep-11 14:52N 30°04' W 093°41'5 1.7
2017-Sep-11 11:58N 30°08' W 093°42'  
2017-Sep-08 11:35N 30°08' W 093°41'  
Track history (hours):
 
Tides and Currents Weather Stations Pressure Air Temp Water Temp Dewpoint Dewpoint Depression Visibility Wind Speed Wind Dir Waves Ship Positions

Steve Richoux

Owner: Marquette Transportation Company Gulf-Inland, LLC, Jefferson, LA. More information available from US FCC via Universal Licensing System and Coast Guard Vessel Documentation Center.

Last reported at 2017-Sep-13 13:56 UTC. Time now 2017-Sep-24 15:55 UTC.
Position N 29°33' W 090°24'.
Warning: this ship's position is 11 days out of date.

Length 21 m; draft 3.4 m.

Type: Tow > 200 m length. MMSI: 366998110.

Date/timePositionNaut miles runAvg speedWind from/ knotsBaromVisibWave heightAir tempDewpointWater temp
2017-Sep-13 13:56N 29°33' W 090°24'1 3.1
2017-Sep-13 13:29N 29°33' W 090°25'2 4.6
2017-Sep-13 13:00N 29°33' W 090°28'3 5.8
2017-Sep-13 12:31N 29°34' W 090°31'3 5.6
2017-Sep-13 12:01N 29°34' W 090°34'2 4.9
2017-Sep-13 11:31N 29°35' W 090°37'3 5.6
2017-Sep-13 11:01N 29°36' W 090°40'2 4.4
2017-Sep-13 10:31N 29°37' W 090°42'2 4.1
2017-Sep-13 10:01N 29°35' W 090°43'2 3.6
2017-Sep-13 09:31N 29°34' W 090°45'2 4.6
2017-Sep-13 09:01N 29°32' W 090°47'2 4.7
2017-Sep-13 08:31N 29°32' W 090°49'3 5.8
2017-Sep-13 07:59N 29°32' W 090°53'3 6.0
2017-Sep-13 07:30N 29°34' W 090°56'60 3.7
2017-Sep-12 15:18N 29°49' W 092°02'1 5.0
2017-Sep-12 15:01N 29°48' W 092°04'3 5.2
2017-Sep-12 14:31N 29°48' W 092°07'3 5.4
2017-Sep-12 14:01N 29°47' W 092°10'3 5.5
2017-Sep-12 13:29N 29°47' W 092°13'1 1.4
2017-Sep-12 12:59N 29°48' W 092°14'1 2.7
2017-Sep-12 12:29N 29°48' W 092°15'5 5.5
2017-Sep-12 11:39N 29°50' W 092°20'38 5.1
2017-Sep-12 04:12N 29°56' W 093°03'1 5.0
2017-Sep-12 04:01N 29°56' W 093°04'2 4.9
2017-Sep-12 03:31N 29°56' W 093°07'3 4.6
2017-Sep-12 02:58N 29°56' W 093°09'2 4.9
2017-Sep-12 02:31N 29°58' W 093°11'2 4.8
2017-Sep-12 02:01N 29°60' W 093°13'2 3.9
2017-Sep-12 01:30N 30°01' W 093°14'2 4.4
2017-Sep-12 01:01N 30°03' W 093°16'2 4.4
2017-Sep-12 00:31N 30°05' W 093°17'1 3.0
2017-Sep-12 00:01N 30°06' W 093°18'1 1.4
2017-Sep-11 23:31N 30°06' W 093°19'0 0.0
2017-Sep-11 23:01N 30°06' W 093°19'0 0.1
2017-Sep-11 22:31N 30°06' W 093°19'0 0.0
2017-Sep-11 22:01N 30°06' W 093°19'0 0.0
2017-Sep-11 21:31N 30°06' W 093°19'0 0.1
2017-Sep-11 21:00N 30°06' W 093°19'0 0.0
2017-Sep-11 20:30N 30°06' W 093°19'0 0.1
2017-Sep-11 20:01N 30°06' W 093°19'0 0.0
2017-Sep-11 19:31N 30°06' W 093°19'0 0.0
2017-Sep-11 19:01N 30°06' W 093°19'0 0.0
2017-Sep-11 18:31N 30°06' W 093°19'2 3.3
2017-Sep-11 18:01N 30°05' W 093°20'2 4.8
2017-Sep-11 17:31N 30°04' W 093°23'3 6.1
2017-Sep-11 17:01N 30°04' W 093°26'3 5.9
2017-Sep-11 16:31N 30°04' W 093°30'3 6.2
2017-Sep-11 16:01N 30°04' W 093°33'3 6.1
2017-Sep-11 15:31N 30°03' W 093°37'4 5.5
2017-Sep-11 14:52N 30°04' W 093°41'5 1.7
2017-Sep-11 11:58N 30°08' W 093°42'  
2017-Sep-08 11:35N 30°08' W 093°41'  

Dump ship's entire track history